Terminal Aerodrome Forecast
Issued by NWS Cleveland, OH

Home | Current Version | Previous Version | Text Only | Print | Product List | Glossary On
Versions: 1 2 3 4 5 6 7 8 9 10 11 12 13 14 15 16 17 18 19 20 21 22
000
FTUS41 KCLE 022328
TAFMFD
TAF
KMFD 022328Z 0300/0324 28008KT P6SM BKN022 OVC035
      TEMPO 0300/0304 SCT022 OVC035
     FM031000 26005KT 6SM BR OVC018
     FM032000 27007KT P6SM OVC035=

USA.gov is the U.S. government's official web portal to all federal, state and local government web resources and services.